Time;durP1;ratioP1;P1;durP2;ratioP2;P2;SDS_P1;SDS_P2;PMS_P1;PMS_P2;Temp;Humidity;BMP_temperature;BMP_pressure;BME280_temperature;BME280_humidity;BME280_pressure;Samples;Min_cycle;Max_cycle;Signal;HPM_P1;HPM_P2
2021/03/15 00:01:46;;;;;;;11.55;7.45;;;3.20;99.90;;;;;;5029253;28;20120;-70
2021/03/15 00:04:12;;;;;;;10.75;7.72;;;3.20;99.90;;;;;;5028193;28;20048;-70
2021/03/15 00:06:38;;;;;;;13.40;7.30;;;3.30;99.90;;;;;;5029258;28;20657;-70
2021/03/15 00:09:03;;;;;;;13.05;7.78;;;3.30;99.90;;;;;;5027562;28;20124;-70
2021/03/15 00:11:29;;;;;;;13.95;7.85;;;3.30;99.90;;;;;;5027997;28;20040;-70
2021/03/15 00:13:55;;;;;;;15.05;8.38;;;3.40;99.90;;;;;;5027544;28;20065;-70
2021/03/15 00:16:20;;;;;;;17.75;11.00;;;3.40;99.90;;;;;;5027586;28;20144;-70
2021/03/15 00:18:46;;;;;;;17.75;10.32;;;3.40;99.90;;;;;;5028229;28;20038;-70
2021/03/15 00:21:11;;;;;;;26.58;12.95;;;3.40;99.90;;;;;;5027130;28;20040;-70
2021/03/15 00:23:37;;;;;;;19.90;10.45;;;3.30;99.90;;;;;;5027824;28;20038;-70
2021/03/15 00:26:03;;;;;;;14.27;8.80;;;3.30;99.90;;;;;;5027363;28;20069;-70
2021/03/15 00:28:28;;;;;;;11.57;6.85;;;3.30;99.90;;;;;;5028377;28;20039;-70
2021/03/15 00:30:54;;;;;;;11.90;7.20;;;3.20;99.90;;;;;;5026945;28;20503;-70
2021/03/15 00:33:23;;;;;;;11.38;6.80;;;3.20;99.90;;;;;;5028591;28;20037;-70
2021/03/15 00:35:49;;;;;;;10.13;6.75;;;3.20;99.90;;;;;;5027802;28;20143;-70
2021/03/15 00:38:14;;;;;;;12.20;6.70;;;3.30;99.90;;;;;;5027162;28;20120;-70
2021/03/15 00:40:40;;;;;;;11.13;8.38;;;3.30;99.90;;;;;;5027582;28;20033;-70
2021/03/15 00:43:06;;;;;;;11.77;7.70;;;3.20;99.90;;;;;;5027353;28;20041;-70
2021/03/15 00:45:31;;;;;;;10.48;7.68;;;3.30;99.90;;;;;;5026551;28;20057;-70
2021/03/15 00:47:57;;;;;;;12.00;7.68;;;3.30;99.90;;;;;;5027533;28;20042;-70
2021/03/15 00:50:31;;;;;;;17.55;10.95;;;3.40;99.90;;;;;;5027218;28;20484;-75
2021/03/15 00:52:57;;;;;;;11.27;8.18;;;3.40;99.90;;;;;;5028127;28;20026;-70
2021/03/15 00:55:23;;;;;;;14.82;9.20;;;3.40;99.90;;;;;;5027189;28;20062;-70
2021/03/15 00:57:49;;;;;;;15.45;11.27;;;3.40;99.90;;;;;;5027643;28;20025;-70
2021/03/15 01:00:19;;;;;;;16.98;11.65;;;3.40;99.90;;;;;;5027183;28;20514;-75
2021/03/15 01:02:45;;;;;;;16.10;10.98;;;3.40;99.90;;;;;;5027865;28;20022;-70
2021/03/15 01:05:12;;;;;;;15.00;11.82;;;3.40;99.90;;;;;;5026912;28;20045;-75
2021/03/15 01:07:38;;;;;;;14.18;9.65;;;3.40;99.90;;;;;;5026693;28;20030;-70
2021/03/15 01:10:10;;;;;;;13.77;10.30;;;3.40;99.90;;;;;;5026586;28;20495;-70
2021/03/15 01:12:36;;;;;;;15.88;11.25;;;3.50;99.90;;;;;;5027462;28;20033;-70
2021/03/15 01:15:04;;;;;;;18.77;11.57;;;3.40;99.90;;;;;;5026407;28;20575;-70
2021/03/15 01:17:30;;;;;;;13.05;9.55;;;3.50;99.90;;;;;;5027030;28;20069;-70
2021/03/15 01:19:56;;;;;;;12.48;8.20;;;3.40;99.90;;;;;;5027004;28;20057;-70
2021/03/15 01:22:21;;;;;;;17.17;10.73;;;3.40;99.90;;;;;;5026413;28;20033;-70
2021/03/15 01:24:47;;;;;;;15.60;10.05;;;3.40;99.90;;;;;;5027100;28;20625;-70
2021/03/15 01:27:12;;;;;;;15.85;11.55;;;3.40;99.90;;;;;;5026362;28;20038;-70
2021/03/15 01:29:38;;;;;;;11.45;6.35;;;3.30;99.90;;;;;;5026620;28;20132;-70
2021/03/15 01:32:04;;;;;;;13.90;8.75;;;3.30;99.90;;;;;;5026132;28;20499;-70
2021/03/15 01:34:29;;;;;;;8.43;5.10;;;3.20;99.90;;;;;;5027243;28;20525;-70
2021/03/15 01:36:55;;;;;;;11.95;7.45;;;3.10;99.90;;;;;;5026231;28;20059;-70
2021/03/15 01:39:21;;;;;;;11.63;6.53;;;3.10;99.90;;;;;;5027000;28;20037;-70
2021/03/15 01:41:46;;;;;;;14.45;9.65;;;3.00;99.90;;;;;;5025993;28;20404;-70
2021/03/15 01:44:12;;;;;;;13.15;7.60;;;3.00;99.90;;;;;;5026643;28;20041;-70
2021/03/15 01:46:38;;;;;;;10.65;7.38;;;3.00;99.90;;;;;;5026480;28;20071;-70
2021/03/15 01:49:03;;;;;;;13.73;6.97;;;3.00;99.90;;;;;;5025812;28;20069;-70
2021/03/15 01:51:29;;;;;;;11.35;6.57;;;2.90;99.90;;;;;;5026310;28;20824;-70
2021/03/15 01:53:56;;;;;;;14.60;8.55;;;2.90;99.90;;;;;;5025329;28;20038;-70
2021/03/15 01:56:22;;;;;;;11.45;6.38;;;2.80;99.90;;;;;;5026420;28;20025;-70
2021/03/15 01:58:48;;;;;;;12.75;6.45;;;2.80;99.90;;;;;;5026768;28;20480;-70
2021/03/15 02:01:13;;;;;;;12.68;7.40;;;2.80;99.90;;;;;;5026347;28;20053;-70
2021/03/15 02:03:39;;;;;;;9.18;5.93;;;2.80;99.90;;;;;;5025886;28;20080;-70
2021/03/15 02:06:05;;;;;;;10.80;7.07;;;2.80;99.90;;;;;;5025723;28;20048;-70
2021/03/15 02:08:30;;;;;;;9.27;6.38;;;2.70;99.90;;;;;;5025388;28;20040;-70
2021/03/15 02:10:56;;;;;;;10.50;6.63;;;2.70;99.90;;;;;;5026860;28;20188;-70
2021/03/15 02:13:51;;;;;;;9.85;6.43;;;2.70;99.90;;;;;;5026534;28;20048;-70
2021/03/15 02:16:36;;;;;;;14.15;8.77;;;2.60;99.90;;;;;;5015601;28;20120;-70
2021/03/15 02:19:31;;;;;;;16.73;9.90;;;2.30;99.90;;;;;;5025340;28;20041;-75
2021/03/15 02:22:30;;;;;;;14.73;9.40;;;2.30;99.90;;;;;;4995914;28;20370;-70
2021/03/15 02:25:09;;;;;;;16.23;9.93;;;2.20;99.90;;;;;;5026549;28;20033;-70
2021/03/15 02:27:50;;;;;;;10.95;6.75;;;2.10;99.90;;;;;;5021372;28;20030;-70
2021/03/15 02:30:21;;;;;;;9.90;6.45;;;2.10;99.90;;;;;;5024590;28;20044;-70
2021/03/15 02:33:12;;;;;;;11.13;6.93;;;2.20;99.90;;;;;;5026642;28;20041;-70
2021/03/15 02:35:39;;;;;;;11.05;7.38;;;2.30;99.90;;;;;;5026663;28;20052;-70
2021/03/15 02:38:10;;;;;;;12.80;9.23;;;2.40;99.90;;;;;;5026215;28;20128;-70
2021/03/15 02:40:56;;;;;;;12.30;8.40;;;2.40;99.90;;;;;;5025531;28;20352;-70
2021/03/15 02:43:29;;;;;;;14.20;10.38;;;2.50;99.90;;;;;;5025381;28;20064;-70
2021/03/15 02:46:09;;;;;;;16.20;10.23;;;2.50;99.90;;;;;;5024308;28;20380;-70
2021/03/15 02:48:36;;;;;;;10.35;7.60;;;2.50;99.90;;;;;;5026212;28;20589;-74
2021/03/15 02:51:05;;;;;;;11.85;8.50;;;2.50;99.90;;;;;;5026228;28;20033;-70
2021/03/15 02:53:32;;;;;;;14.93;9.82;;;2.60;99.90;;;;;;5025204;28;20029;-70
2021/03/15 02:56:03;;;;;;;14.60;9.65;;;2.60;99.90;;;;;;5026313;28;20061;-70
2021/03/15 02:58:31;;;;;;;17.35;11.18;;;2.50;99.90;;;;;;5024798;28;20029;-70
2021/03/15 03:00:58;;;;;;;11.88;9.35;;;2.60;99.90;;;;;;5026252;28;20054;-70
2021/03/15 03:03:26;;;;;;;16.25;10.48;;;2.50;99.90;;;;;;5026264;28;20641;-70
2021/03/15 03:05:55;;;;;;;13.25;7.95;;;2.50;99.90;;;;;;5026176;28;20377;-75
2021/03/15 03:08:21;;;;;;;13.20;9.95;;;2.50;99.90;;;;;;5026396;28;20033;-70
2021/03/15 03:10:49;;;;;;;10.60;7.70;;;2.50;99.90;;;;;;5030141;28;20038;-70
2021/03/15 03:13:21;;;;;;;13.32;7.55;;;2.40;99.90;;;;;;5028482;28;20042;-75
2021/03/15 03:15:48;;;;;;;13.13;7.85;;;2.50;99.90;;;;;;5011440;28;20049;-70
2021/03/15 03:18:16;;;;;;;10.75;7.20;;;2.50;99.90;;;;;;5027360;28;20400;-70
2021/03/15 03:20:43;;;;;;;10.10;7.32;;;2.50;99.90;;;;;;5029604;28;20040;-70
2021/03/15 03:23:10;;;;;;;13.63;9.20;;;2.40;99.90;;;;;;5028983;28;20029;-70
2021/03/15 03:25:37;;;;;;;10.10;7.47;;;2.50;99.90;;;;;;5029297;28;20037;-70
2021/03/15 03:28:04;;;;;;;12.48;8.85;;;2.50;99.90;;;;;;5030187;28;20044;-70
2021/03/15 03:30:37;;;;;;;11.82;8.95;;;2.50;99.90;;;;;;5029096;28;20037;-70
2021/03/15 03:33:06;;;;;;;10.27;7.38;;;2.50;99.90;;;;;;5010981;28;20030;-70
2021/03/15 03:35:32;;;;;;;12.02;8.20;;;2.40;99.90;;;;;;5009534;28;20041;-70
2021/03/15 03:37:58;;;;;;;12.07;8.73;;;2.50;99.90;;;;;;5009175;28;20037;-70
2021/03/15 03:40:25;;;;;;;12.20;8.32;;;2.50;99.90;;;;;;5029064;28;20041;-70
2021/03/15 03:42:51;;;;;;;12.73;9.05;;;2.50;99.90;;;;;;5028816;28;20195;-70
2021/03/15 03:45:17;;;;;;;18.08;12.63;;;2.50;99.90;;;;;;5028188;28;20116;-70
2021/03/15 03:47:43;;;;;;;18.08;13.80;;;2.40;99.90;;;;;;5029161;28;20049;-70
2021/03/15 03:50:12;;;;;;;19.58;14.18;;;2.40;99.90;;;;;;5029527;28;20029;-70
2021/03/15 03:52:54;;;;;;;19.90;14.70;;;2.50;99.90;;;;;;5029119;28;20029;-70
2021/03/15 03:55:22;;;;;;;20.65;14.63;;;2.50;99.90;;;;;;5028652;28;20381;-70
2021/03/15 03:57:50;;;;;;;25.55;18.65;;;2.60;99.90;;;;;;5029405;28;20388;-70
2021/03/15 04:00:18;;;;;;;24.88;15.88;;;2.60;99.90;;;;;;5028576;28;20037;-70
2021/03/15 04:02:45;;;;;;;21.17;13.85;;;2.60;99.90;;;;;;5029372;28;20040;-70
2021/03/15 04:05:16;;;;;;;31.17;19.63;;;2.60;99.90;;;;;;5028007;28;20436;-70
2021/03/15 04:07:50;;;;;;;28.60;16.73;;;2.50;99.90;;;;;;5028606;28;20033;-70
2021/03/15 04:10:16;;;;;;;21.67;15.57;;;2.40;99.90;;;;;;5027895;28;20041;-75
2021/03/15 04:12:50;;;;;;;25.75;15.95;;;2.50;99.90;;;;;;5029184;28;20056;-70
2021/03/15 04:15:17;;;;;;;28.23;18.33;;;2.40;99.90;;;;;;5028243;28;20124;-76
2021/03/15 04:17:44;;;;;;;24.30;15.52;;;2.30;99.90;;;;;;4990258;28;20051;-71
2021/03/15 04:20:25;;;;;;;21.90;14.23;;;2.30;99.90;;;;;;4988141;28;20375;-70
2021/03/15 04:22:55;;;;;;;15.85;11.57;;;2.40;99.90;;;;;;4989482;28;20536;-75
2021/03/15 04:25:24;;;;;;;10.05;6.50;;;2.30;99.90;;;;;;4988572;28;20382;-70
2021/03/15 04:27:52;;;;;;;8.30;6.18;;;2.30;99.90;;;;;;4990298;28;20030;-71
2021/03/15 04:30:23;;;;;;;9.70;5.38;;;2.30;99.90;;;;;;4987525;28;20030;-70
2021/03/15 04:32:53;;;;;;;10.70;7.18;;;2.30;99.90;;;;;;4989148;28;20030;-70
2021/03/15 04:35:30;;;;;;;10.90;7.28;;;2.40;99.90;;;;;;4987813;28;20029;-71
2021/03/15 04:38:00;;;;;;;9.50;7.95;;;2.50;99.90;;;;;;4989506;28;20038;-71
2021/03/15 04:40:28;;;;;;;12.32;8.80;;;2.50;99.90;;;;;;4987909;28;20027;-75
2021/03/15 04:43:01;;;;;;;11.45;7.80;;;2.50;99.90;;;;;;4989770;28;20041;-71
2021/03/15 04:45:44;;;;;;;16.38;11.85;;;2.60;99.90;;;;;;4987923;28;20026;-70
2021/03/15 04:48:15;;;;;;;;;;;2.60;99.90;;;;;;4988533;28;20109;-70
2021/03/15 04:50:45;;;;;;;17.00;11.88;;;2.60;99.90;;;;;;4989596;28;19914;-70
2021/03/15 04:53:13;;;;;;;23.73;13.77;;;2.50;99.90;;;;;;4988841;28;20615;-75
2021/03/15 04:55:42;;;;;;;17.10;12.02;;;2.50;99.90;;;;;;4987889;28;20032;-70
2021/03/15 04:58:09;;;;;;;12.48;7.47;;;2.50;99.90;;;;;;4987819;28;20037;-70
2021/03/15 05:00:38;;;;;;;11.32;5.88;;;2.50;99.90;;;;;;4987693;28;20560;-70
2021/03/15 05:03:09;;;;;;;9.82;6.10;;;2.50;99.90;;;;;;4987400;28;20038;-70
2021/03/15 05:05:37;;;;;;;15.75;7.40;;;2.50;99.90;;;;;;4988104;28;20043;-70
2021/03/15 05:08:06;;;;;;;10.10;6.90;;;2.50;99.90;;;;;;4987709;28;20121;-70
2021/03/15 05:10:33;;;;;;;11.60;8.40;;;2.60;99.90;;;;;;4988392;28;20737;-70
2021/03/15 05:12:59;;;;;;;10.13;6.78;;;2.60;99.90;;;;;;4987468;28;20486;-70
2021/03/15 05:15:26;;;;;;;8.48;6.30;;;2.60;99.90;;;;;;4989353;28;20030;-70
2021/03/15 05:17:53;;;;;;;8.18;4.20;;;2.60;99.90;;;;;;5028095;28;20171;-70
2021/03/15 05:20:19;;;;;;;9.57;5.40;;;2.60;99.90;;;;;;5026941;28;20052;-70
2021/03/15 05:22:45;;;;;;;7.72;4.90;;;2.60;99.90;;;;;;5026662;28;20377;-70
2021/03/15 05:25:13;;;;;;;7.95;5.32;;;2.60;99.90;;;;;;5027312;28;20029;-70
2021/03/15 05:27:42;;;;;;;29.67;23.27;;;2.60;99.90;;;;;;5026984;28;20077;-75
2021/03/15 05:30:13;;;;;;;18.80;13.60;;;2.70;99.90;;;;;;5027024;28;20034;-70
2021/03/15 05:32:50;;;;;;;8.20;4.93;;;2.70;99.90;;;;;;5025968;28;20038;-70
2021/03/15 05:35:17;;;;;;;10.00;5.93;;;2.60;99.90;;;;;;5027217;28;20079;-70
2021/03/15 05:37:45;;;;;;;8.02;5.80;;;2.60;99.90;;;;;;5026355;28;20040;-70
2021/03/15 05:40:15;;;;;;;7.15;4.60;;;2.70;99.90;;;;;;5026849;28;20499;-70
2021/03/15 05:42:58;;;;;;;6.20;4.55;;;2.70;99.90;;;;;;5026623;28;20043;-70
2021/03/15 05:46:00;;;;;;;5.95;3.08;;;2.70;99.90;;;;;;5026685;28;20026;-70
2021/03/15 05:48:56;;;;;;;9.20;3.87;;;2.70;99.90;;;;;;5026857;28;20021;-70
2021/03/15 05:51:59;;;;;;;8.85;5.85;;;2.60;99.90;;;;;;5027523;28;21099;-70
2021/03/15 05:54:28;;;;;;;;;;;2.60;99.90;;;;;;5026081;28;20037;-75
2021/03/15 05:57:09;;;;;;;8.35;5.15;;;2.60;99.90;;;;;;5026977;28;20353;-70
2021/03/15 05:59:43;;;;;;;7.63;4.88;;;2.50;99.90;;;;;;5025999;28;20025;-70
2021/03/15 06:02:12;;;;;;;8.27;5.32;;;2.50;99.90;;;;;;5026201;28;20040;-70
2021/03/15 06:05:15;;;;;;;9.95;5.13;;;2.50;99.90;;;;;;5026195;28;20029;-70
2021/03/15 06:07:42;;;;;;;;;;;2.50;99.90;;;;;;5026375;28;20589;-70
2021/03/15 06:10:09;;;;;;;7.97;3.83;;;2.50;99.90;;;;;;5025102;28;19948;-70
2021/03/15 06:13:01;;;;;;;10.70;5.45;;;2.60;99.90;;;;;;5018027;28;20037;-70
2021/03/15 06:15:38;;;;;;;14.18;7.50;;;2.60;99.90;;;;;;5018193;28;20052;-70
2021/03/15 06:18:06;;;;;;;12.70;6.63;;;2.70;99.90;;;;;;5024371;28;20033;-70
2021/03/15 06:20:33;;;;;;;18.75;13.30;;;2.70;99.90;;;;;;5019538;28;20927;-70
2021/03/15 06:23:00;;;;;;;13.38;8.90;;;2.70;99.90;;;;;;5018725;28;20622;-70
2021/03/15 06:25:26;;;;;;;17.08;11.13;;;2.80;99.90;;;;;;5021781;28;20125;-69
2021/03/15 06:27:53;;;;;;;15.57;9.73;;;2.80;99.90;;;;;;5019769;28;20025;-70
2021/03/15 06:30:20;;;;;;;18.02;13.30;;;2.80;99.90;;;;;;5023072;28;20029;-70
2021/03/15 06:32:50;;;;;;;17.52;13.02;;;2.80;99.90;;;;;;5015646;28;20029;-70
2021/03/15 06:35:17;;;;;;;16.55;9.57;;;2.80;99.90;;;;;;5019024;28;20037;-70
2021/03/15 06:37:44;;;;;;;15.27;9.73;;;2.80;99.90;;;;;;5015344;28;20033;-70
2021/03/15 06:40:12;;;;;;;14.77;10.15;;;2.80;99.90;;;;;;5021533;28;20017;-70
2021/03/15 06:42:39;;;;;;;18.15;14.35;;;2.80;99.90;;;;;;5013613;28;20072;-75
2021/03/15 06:45:09;;;;;;;20.70;14.55;;;2.80;99.90;;;;;;5020442;28;20021;-70
2021/03/15 06:47:36;;;;;;;13.70;7.68;;;2.80;99.90;;;;;;5019624;28;20343;-70
2021/03/15 06:50:02;;;;;;;10.98;6.95;;;2.80;99.90;;;;;;5018398;28;20091;-71
2021/03/15 06:52:28;;;;;;;11.18;7.35;;;2.70;99.90;;;;;;5017410;28;20053;-70
2021/03/15 06:55:00;;;;;;;8.85;6.28;;;2.80;99.90;;;;;;5013664;28;20030;-70
2021/03/15 06:57:27;;;;;;;10.35;6.68;;;2.80;99.90;;;;;;5010845;28;20034;-70
2021/03/15 06:59:56;;;;;;;12.00;7.10;;;2.80;99.90;;;;;;5013406;28;20057;-70
2021/03/15 07:02:28;;;;;;;11.35;6.45;;;2.90;99.90;;;;;;5011492;28;20030;-70
2021/03/15 07:04:55;;;;;;;9.53;6.07;;;2.80;99.90;;;;;;5010727;28;20030;-70
2021/03/15 07:07:26;;;;;;;13.27;7.30;;;2.80;99.90;;;;;;5009889;28;20061;-73
2021/03/15 07:09:52;;;;;;;13.70;7.80;;;2.80;99.90;;;;;;5015487;28;20037;-70
2021/03/15 07:12:23;;;;;;;12.27;7.80;;;2.80;99.90;;;;;;5008894;28;20552;-70
2021/03/15 07:14:50;;;;;;;12.00;8.25;;;2.80;99.90;;;;;;5013712;28;20034;-70
2021/03/15 07:17:26;;;;;;;23.77;8.00;;;2.80;99.90;;;;;;5018033;28;20058;-70
2021/03/15 07:19:53;;;;;;;11.70;7.10;;;2.80;99.90;;;;;;5013974;28;20113;-70
2021/03/15 07:22:22;;;;;;;12.27;7.60;;;2.80;99.90;;;;;;5020149;28;20026;-75
2021/03/15 07:25:07;;;;;;;14.90;8.00;;;2.80;99.90;;;;;;5016017;28;20116;-75
2021/03/15 07:27:35;;;;;;;11.88;7.80;;;2.80;99.90;;;;;;5021197;28;20030;-70
2021/03/15 07:30:28;;;;;;;12.02;8.25;;;2.90;99.90;;;;;;5021868;28;20042;-70
2021/03/15 07:32:55;;;;;;;13.02;8.07;;;2.80;99.90;;;;;;5017698;28;20033;-70
2021/03/15 07:35:29;;;;;;;19.77;9.52;;;2.80;99.90;;;;;;5020511;28;20747;-75
2021/03/15 07:37:55;;;;;;;17.42;9.48;;;2.80;99.90;;;;;;5020865;28;20033;-70
2021/03/15 07:40:45;;;;;;;14.65;8.50;;;2.70;99.90;;;;;;5015309;28;20496;-70
2021/03/15 07:43:25;;;;;;;17.98;11.35;;;2.70;99.90;;;;;;5016070;28;20041;-75
2021/03/15 07:45:51;;;;;;;20.67;12.40;;;2.70;99.90;;;;;;5019411;28;20048;-70
2021/03/15 07:48:22;;;;;;;16.13;10.52;;;2.80;99.90;;;;;;5016230;28;20037;-70
2021/03/15 07:51:02;;;;;;;19.75;9.05;;;2.70;99.90;;;;;;5013138;28;20053;-70
2021/03/15 07:54:01;;;;;;;14.70;9.05;;;2.60;99.90;;;;;;5018986;28;20030;-70
2021/03/15 07:56:27;;;;;;;20.33;10.05;;;2.70;99.90;;;;;;5017962;28;20029;-75
2021/03/15 07:58:54;;;;;;;19.92;11.35;;;2.70;99.90;;;;;;5021908;28;20095;-70
2021/03/15 08:01:20;;;;;;;16.27;10.90;;;2.70;99.90;;;;;;5021588;28;20026;-70
2021/03/15 08:03:45;;;;;;;16.67;10.43;;;2.70;99.90;;;;;;5019687;28;20080;-71
2021/03/15 08:06:12;;;;;;;14.25;8.40;;;2.70;99.90;;;;;;5023282;28;20627;-70
2021/03/15 08:08:39;;;;;;;22.10;11.80;;;2.60;99.90;;;;;;5021268;28;20113;-70
2021/03/15 08:11:06;;;;;;;18.88;12.93;;;2.60;99.90;;;;;;5027585;28;20388;-70
2021/03/15 08:13:40;;;;;;;17.38;10.20;;;2.50;99.90;;;;;;5020396;28;20034;-75
2021/03/15 08:16:06;;;;;;;15.63;8.40;;;2.50;99.90;;;;;;5023859;28;20065;-70
2021/03/15 08:18:34;;;;;;;21.15;10.73;;;2.50;99.90;;;;;;5020773;28;20069;-70
2021/03/15 08:21:10;;;;;;;19.70;11.25;;;2.60;99.90;;;;;;5024670;28;20033;-70
2021/03/15 08:23:44;;;;;;;20.98;12.43;;;2.60;99.90;;;;;;5020810;28;20583;-70
2021/03/15 08:26:12;;;;;;;21.33;14.88;;;2.60;99.90;;;;;;5026622;28;20496;-70
2021/03/15 08:28:40;;;;;;;22.65;12.68;;;2.50;99.90;;;;;;5022879;28;20076;-70
2021/03/15 08:31:17;;;;;;;20.67;10.45;;;2.50;99.90;;;;;;5020458;28;20455;-70
2021/03/15 08:33:47;;;;;;;16.55;11.30;;;2.50;99.90;;;;;;5025557;28;20511;-70
2021/03/15 08:36:14;;;;;;;16.85;10.25;;;2.50;99.90;;;;;;5026613;28;20424;-70
2021/03/15 08:38:40;;;;;;;17.42;11.30;;;2.60;99.90;;;;;;5024003;28;20037;-70
2021/03/15 08:41:21;;;;;;;21.95;12.02;;;2.60;99.90;;;;;;5020470;28;20033;-70
2021/03/15 08:43:48;;;;;;;23.77;12.35;;;2.60;99.90;;;;;;5020487;28;20112;-70
2021/03/15 08:46:15;;;;;;;18.10;11.35;;;2.50;99.90;;;;;;5026499;28;20404;-70
2021/03/15 08:48:41;;;;;;;19.70;10.82;;;2.60;99.90;;;;;;5022835;28;20042;-75
2021/03/15 08:51:08;;;;;;;22.40;13.73;;;2.60;99.90;;;;;;5019764;28;20474;-74
2021/03/15 08:53:37;;;;;;;22.02;12.70;;;2.60;99.90;;;;;;5013528;28;20041;-70
2021/03/15 08:56:23;;;;;;;18.70;12.25;;;2.60;99.90;;;;;;5023226;28;20116;-70
2021/03/15 08:58:50;;;;;;;19.92;12.23;;;2.60;99.90;;;;;;5004208;28;20044;-70
2021/03/15 09:01:21;;;;;;;21.92;12.85;;;2.60;99.90;;;;;;5022552;28;20053;-75
2021/03/15 09:03:55;;;;;;;21.67;11.65;;;2.70;99.90;;;;;;5023774;28;20033;-70
2021/03/15 09:06:33;;;;;;;21.58;12.68;;;2.60;99.90;;;;;;5016972;28;20029;-70
2021/03/15 09:09:00;;;;;;;18.13;12.90;;;2.60;99.90;;;;;;5021688;28;20029;-75
2021/03/15 09:11:35;;;;;;;22.80;13.05;;;2.60;99.90;;;;;;5027060;28;20041;-70
2021/03/15 09:16:49;;;;;;;23.05;12.90;;;2.60;99.90;;;;;;5021486;28;20049;-70
2021/03/15 09:19:17;;;;;;;26.58;13.48;;;2.50;99.90;;;;;;5024851;28;20540;-70
2021/03/15 09:21:46;;;;;;;24.70;11.90;;;2.50;99.90;;;;;;5020818;28;20481;-75
2021/03/15 09:24:33;;;;;;;19.60;10.65;;;2.50;99.90;;;;;;5023894;28;20041;-71
2021/03/15 09:26:59;;;;;;;19.85;14.23;;;2.40;99.90;;;;;;5023997;28;20163;-70
2021/03/15 09:29:25;;;;;;;21.48;13.77;;;2.40;99.90;;;;;;5024407;28;20068;-70
2021/03/15 09:31:59;;;;;;;21.25;12.43;;;2.50;99.90;;;;;;5018090;28;20139;-70
2021/03/15 09:34:27;;;;;;;22.02;12.63;;;2.50;99.90;;;;;;5022226;28;20069;-70
2021/03/15 09:36:55;;;;;;;22.30;12.55;;;2.50;99.90;;;;;;5022667;28;20117;-70
2021/03/15 09:39:21;;;;;;;22.77;14.25;;;2.50;99.90;;;;;;5022069;28;20037;-75
2021/03/15 09:41:48;;;;;;;28.08;15.07;;;2.50;99.90;;;;;;5021245;28;20022;-70
2021/03/15 09:44:13;;;;;;;25.08;14.80;;;2.50;99.90;;;;;;5024601;28;20045;-75
2021/03/15 09:46:42;;;;;;;19.55;11.80;;;2.50;99.90;;;;;;5020026;28;20040;-70
2021/03/15 09:49:08;;;;;;;26.85;15.80;;;2.50;99.90;;;;;;5017937;28;20047;-70
2021/03/15 09:51:33;;;;;;;23.52;15.23;;;2.50;99.90;;;;;;5023394;28;20033;-70
2021/03/15 09:53:59;;;;;;;20.95;13.57;;;2.50;99.90;;;;;;5021627;28;20092;-70
2021/03/15 09:56:25;;;;;;;23.75;13.90;;;2.50;99.90;;;;;;5020711;28;20029;-70
2021/03/15 09:58:52;;;;;;;19.33;11.27;;;2.50;99.90;;;;;;5025979;28;20033;-70
2021/03/15 10:01:22;;;;;;;18.23;11.52;;;2.50;99.90;;;;;;5018773;28;20029;-76
2021/03/15 10:03:52;;;;;;;21.05;12.85;;;2.40;99.90;;;;;;5023191;28;20041;-70
2021/03/15 10:06:27;;;;;;;19.83;11.40;;;2.50;99.90;;;;;;5022966;28;20064;-70
2021/03/15 10:08:54;;;;;;;20.02;11.57;;;2.50;99.90;;;;;;5024416;28;20048;-70
2021/03/15 10:11:21;;;;;;;25.45;13.07;;;2.50;99.90;;;;;;5019973;28;20052;-70
2021/03/15 10:13:57;;;;;;;20.73;12.85;;;2.50;99.90;;;;;;5021615;28;20041;-70
2021/03/15 10:16:23;;;;;;;20.20;11.55;;;2.50;99.90;;;;;;5016955;28;20046;-70
2021/03/15 10:18:51;;;;;;;18.65;11.30;;;2.50;99.90;;;;;;5019990;28;20029;-74
2021/03/15 10:21:27;;;;;;;25.65;13.63;;;2.50;99.90;;;;;;5022713;28;20666;-71
2021/03/15 10:23:53;;;;;;;36.03;18.00;;;2.40;99.90;;;;;;5021420;28;20041;-70
2021/03/15 10:26:19;;;;;;;26.52;16.63;;;2.40;99.90;;;;;;5020980;28;20034;-70
2021/03/15 10:28:51;;;;;;;20.95;12.95;;;2.40;99.90;;;;;;5010429;28;20053;-70
2021/03/15 10:31:23;;;;;;;24.23;14.80;;;2.50;99.90;;;;;;5022029;28;20079;-70
2021/03/15 10:33:51;;;;;;;17.30;11.48;;;2.50;99.90;;;;;;5020678;28;20076;-70
2021/03/15 10:36:22;;;;;;;21.65;12.88;;;2.50;99.90;;;;;;5016073;28;20025;-75
2021/03/15 10:38:48;;;;;;;18.20;10.95;;;2.50;99.90;;;;;;5017476;28;20065;-70
2021/03/15 10:41:15;;;;;;;24.48;13.20;;;2.50;99.90;;;;;;5019007;28;20030;-70
2021/03/15 10:43:43;;;;;;;29.42;15.18;;;2.50;99.90;;;;;;5013059;28;20044;-70
2021/03/15 10:46:23;;;;;;;18.40;12.10;;;2.50;99.90;;;;;;5011494;28;20037;-70
2021/03/15 10:48:50;;;;;;;16.25;10.13;;;2.40;99.90;;;;;;5021627;28;20075;-74
2021/03/15 10:51:16;;;;;;;20.35;12.50;;;2.30;99.90;;;;;;5022196;28;20079;-70
2021/03/15 10:53:49;;;;;;;20.02;14.00;;;2.10;99.90;;;;;;5018124;28;20050;-70
2021/03/15 10:56:16;;;;;;;26.08;15.57;;;2.10;99.90;;;;;;5021172;28;20469;-71
2021/03/15 10:58:42;;;;;;;20.13;12.65;;;2.20;99.90;;;;;;5018788;28;20064;-71
2021/03/15 11:01:09;;;;;;;23.15;14.82;;;2.20;99.90;;;;;;5019042;28;20107;-70
2021/03/15 11:03:34;;;;;;;25.08;15.05;;;2.30;99.90;;;;;;5020653;28;20501;-71
2021/03/15 11:06:19;;;;;;;22.45;13.88;;;2.40;99.90;;;;;;5021034;28;20029;-70
2021/03/15 11:08:58;;;;;;;20.75;13.02;;;2.40;99.90;;;;;;5019450;28;20555;-70
2021/03/15 11:11:28;;;;;;;19.30;12.75;;;2.40;99.90;;;;;;5017246;28;20148;-75
2021/03/15 11:13:56;;;;;;;23.73;15.30;;;2.40;99.90;;;;;;5010869;28;20033;-70
2021/03/15 11:16:28;;;;;;;21.13;14.23;;;2.40;99.90;;;;;;5010435;28;20053;-70
2021/03/15 11:19:05;;;;;;;23.57;14.27;;;2.30;99.90;;;;;;5016847;28;20033;-70
2021/03/15 11:21:39;;;;;;;22.77;15.93;;;2.20;99.90;;;;;;5021308;28;20472;-70
2021/03/15 11:24:06;;;;;;;25.13;16.25;;;2.30;99.90;;;;;;5019613;28;20037;-70
2021/03/15 11:26:52;;;;;;;30.60;17.35;;;2.40;99.90;;;;;;5019683;28;20443;-70
2021/03/15 11:29:33;;;;;;;30.73;18.73;;;2.40;99.90;;;;;;5019788;28;20133;-71
2021/03/15 11:31:58;;;;;;;25.42;17.05;;;2.40;99.90;;;;;;5014448;28;20113;-71
2021/03/15 11:34:25;;;;;;;32.38;19.33;;;2.40;99.90;;;;;;5027173;28;20148;-71
2021/03/15 11:36:54;;;;;;;41.10;25.20;;;2.40;99.90;;;;;;5026153;28;20056;-71
2021/03/15 11:39:20;;;;;;;44.92;23.65;;;2.40;99.90;;;;;;5025178;28;20061;-70
2021/03/15 11:41:46;;;;;;;44.70;24.83;;;2.40;99.90;;;;;;5021902;28;20483;-70
2021/03/15 11:44:13;;;;;;;33.00;22.27;;;2.30;99.90;;;;;;5018572;28;20041;-71
2021/03/15 11:46:40;;;;;;;46.47;29.45;;;2.30;99.90;;;;;;5022077;28;20029;-70
2021/03/15 11:49:05;;;;;;;39.35;25.33;;;2.30;99.90;;;;;;5022967;28;20172;-70
2021/03/15 11:51:31;;;;;;;35.28;21.02;;;2.30;99.90;;;;;;5026356;28;20183;-71
2021/03/15 11:53:57;;;;;;;32.90;19.90;;;2.30;99.90;;;;;;5019310;28;20066;-71
2021/03/15 11:56:23;;;;;;;30.05;18.30;;;2.40;99.90;;;;;;5012530;28;20128;-71
2021/03/15 11:58:48;;;;;;;27.58;14.93;;;2.40;99.90;;;;;;5023282;28;20029;-70
2021/03/15 12:01:14;;;;;;;22.60;12.95;;;2.40;99.90;;;;;;5022102;28;20064;-71
2021/03/15 12:03:40;;;;;;;23.23;15.10;;;2.50;99.90;;;;;;5022909;28;20072;-71
2021/03/15 12:06:06;;;;;;;25.00;12.63;;;2.50;99.90;;;;;;5026207;28;20093;-71
2021/03/15 12:08:32;;;;;;;30.38;15.27;;;2.50;99.90;;;;;;5023888;28;20045;-72
2021/03/15 12:10:57;;;;;;;23.92;12.40;;;2.50;99.90;;;;;;5025703;28;20029;-70
2021/03/15 12:13:24;;;;;;;20.17;12.65;;;2.60;99.90;;;;;;5025507;28;20041;-71
2021/03/15 12:15:50;;;;;;;19.42;11.95;;;2.60;99.90;;;;;;5022273;28;20062;-76
2021/03/15 12:18:17;;;;;;;20.38;11.20;;;2.60;99.90;;;;;;5020058;28;20110;-71
2021/03/15 12:20:43;;;;;;;26.27;11.20;;;2.60;99.90;;;;;;5023701;28;20563;-71
2021/03/15 12:23:10;;;;;;;20.30;11.73;;;2.60;99.90;;;;;;5009663;28;20033;-71
2021/03/15 12:25:37;;;;;;;23.40;13.63;;;2.60;99.90;;;;;;5024787;28;20023;-71
2021/03/15 12:28:04;;;;;;;21.25;12.63;;;2.60;99.90;;;;;;5019656;28;20033;-71
2021/03/15 12:30:30;;;;;;;27.00;14.52;;;2.60;99.90;;;;;;5015789;28;20044;-71
2021/03/15 12:32:56;;;;;;;23.50;15.02;;;2.70;99.90;;;;;;5021682;28;20029;-71
2021/03/15 12:35:25;;;;;;;27.67;16.77;;;2.70;99.90;;;;;;5019269;28;20060;-71
2021/03/15 12:37:51;;;;;;;42.13;25.13;;;2.70;99.90;;;;;;5016903;28;20029;-72
2021/03/15 12:40:19;;;;;;;35.33;20.25;;;2.80;99.90;;;;;;5022845;28;20033;-71
2021/03/15 12:42:45;;;;;;;26.02;16.20;;;2.70;99.90;;;;;;5019923;28;20111;-72
2021/03/15 12:45:11;;;;;;;24.88;13.77;;;2.80;99.90;;;;;;5023492;28;20131;-71
2021/03/15 12:47:37;;;;;;;23.88;15.25;;;2.70;99.90;;;;;;5023763;28;20435;-71
2021/03/15 12:50:04;;;;;;;23.95;16.08;;;2.80;99.90;;;;;;5016985;28;20029;-71
2021/03/15 12:52:29;;;;;;;33.67;21.60;;;2.70;99.90;;;;;;5025483;28;20552;-71
2021/03/15 12:54:56;;;;;;;26.75;16.05;;;2.70;99.90;;;;;;5023676;28;20040;-71
2021/03/15 12:57:22;;;;;;;28.08;16.15;;;2.70;99.90;;;;;;5025292;28;20493;-71
2021/03/15 12:59:47;;;;;;;24.60;15.77;;;2.80;99.90;;;;;;5023125;28;20033;-71